Weather at Mavrovica Airfield [CLOSED]

Public forecast

Using degrees Celsius for public forecast. Weather courtesy of forecast.io.

Closest aviation weather report (METAR) to Mavrovica Airfield

Closest report is Skopje International Airport, 15.2 nm (28.2 km) WNW. Retrieved 2022/06/29 10:30 UTC (0 seconds ago):

LWSK 291030Z VRB02KT CAVOK 31/13 Q1015 NOSIG

Closest aviation forecast (TAF) to Mavrovica Airfield

Closest forecast is Skopje International Airport, 15.2 nm (28.2 km) WNW. Retrieved 2022/06/29 09:37 UTC (44 minutes ago):

TAF LWSK 290830Z 2909/3009 VRB02KT CAVOK TEMPO 2910/2916 16010KT FEW050